Accueil
METAR-TAF:

METAR-TAF

Aéroports :

Bergame, Italie

Aéroport de Bergame-Orio al Serio

latitude: 45-40N, longitude: 009-42E, altitude: 238 m

Observation

Le bulletin a été fait il y a 30 minutes, à 01:20 UTC
Vent 6 kt de nord/nord-est
Température 12°C
Humidité 88%
Pression 1026 hPa
Visibilité 10 km ou plus
pas de nuages en-dessous de 1500 mètres et pas de cumulonimbus.

METAR: LIME 170120Z 02006KT CAVOK 12/10 Q1026 NOSIG

Heure: 03:50 (01:50 UTC)

Prévision

Le bulletin a été fait il y a 2 heures et 50 minutes, à 23:00 UTC
Prévision valable du 17 à 00 UTC au 17 à 24 UTC
Vent 5 kt de direction variable
Visibilité 10 km ou plus
pas de nuages en-dessous de 1500 mètres et pas de cumulonimbus.
Temporairement
du 17 à 04 UTC au 17 à 08 UTC
Visibilité: 4000 m
brume

TAF: LIME 162300Z 1700/1724 VRB05KT CAVOK TEMPO 1704/1708 4000 BR

Observations et prévisions météorologiques de plus de 4000 aéroports (messages METAR et TAF).

Les stations disponibles sont représentées par des disques jaunes et rouges sur la carte.

Passer la souris dessus pour voir le nom de la station.

Cliquer dessus pour voir les observations et prévisions météorologiques.

Pour changer de carte: cliquez sur les boutons verts avec une croix noire pour zoomer, sur le bouton vert avec un tiret pour effectuer un zoom arrière, ou sur les flèches vertes pour les cartes adjacentes.


METAR-TAF: